Time,TemperatureF,DewpointF,PressureIn,WindDirection,WindDirectionDegrees,WindSpeedMPH,WindSpeedGustMPH,Humidity,HourlyPrecipIn,Conditions,Clouds,dailyrainin,SoftwareType,DateUTC
2013-02-16 00:00:00,30.4,25.8,29.90,North,0,0.0,0.0,83,0.00,FEW,,0.00,WeatherDisplay:10.37,2013-02-16 05:00:00,
2013-02-16 00:03:00,30.4,26.1,29.90,North,0,0.0,0.0,84,0.00,OVC,,0.00,WeatherDisplay:10.37,2013-02-16 05:03:00,
2013-02-16 00:08:00,30.4,26.1,29.90,North,0,0.0,0.0,84,0.00,OVC,,0.00,WeatherDisplay:10.37,2013-02-16 05:08:00,
2013-02-16 00:10:00,30.4,26.1,29.90,North,0,0.0,0.0,84,0.00,OVC,,0.00,WeatherDisplay:10.37,2013-02-16 05:10:00,
2013-02-16 00:15:00,31.1,26.5,29.90,North,0,0.0,0.0,83,0.00,OVC,,0.00,WeatherDisplay:10.37,2013-02-16 05:15:00,
2013-02-16 00:20:00,31.1,26.5,29.92,North,0,0.0,0.0,83,0.00,OVC,,0.00,WeatherDisplay:10.37,2013-02-16 05:20:00,
2013-02-16 00:24:00,31.1,26.5,29.92,North,0,0.0,0.0,83,0.00,OVC,,0.00,WeatherDisplay:10.37,2013-02-16 05:24:00,
2013-02-16 00:29:00,31.5,26.9,29.92,North,0,0.0,0.0,83,0.00,OVC,,0.00,WeatherDisplay:10.37,2013-02-16 05:29:00,
2013-02-16 00:34:00,31.5,26.9,29.92,North,0,0.0,0.0,83,0.00,OVC,,0.00,WeatherDisplay:10.37,2013-02-16 05:34:00,
2013-02-16 00:40:00,31.6,27.1,29.90,North,0,0.0,0.0,83,0.00,OVC,,0.00,WeatherDisplay:10.37,2013-02-16 05:40:00,
2013-02-16 00:45:00,31.8,27.2,29.90,North,0,0.0,0.0,83,0.00,OVC,,0.00,WeatherDisplay:10.37,2013-02-16 05:45:00,
2013-02-16 00:50:00,31.8,27.2,29.90,North,0,0.0,0.0,83,0.00,OVC,,0.00,WeatherDisplay:10.37,2013-02-16 05:50:00,
2013-02-16 00:55:00,31.8,27.2,29.90,North,0,0.0,0.0,83,0.00,OVC,,0.00,WeatherDisplay:10.37,2013-02-16 05:55:00,
2013-02-16 00:57:00,31.8,27.2,29.90,North,0,0.0,0.0,83,0.00,OVC,,0.00,WeatherDisplay:10.37,2013-02-16 05:57:00,
2013-02-16 01:02:00,32.2,27.6,29.90,North,0,0.0,0.0,83,0.00,OVC,,0.00,WeatherDisplay:10.37,2013-02-16 06:02:00,
2013-02-16 01:07:00,32.0,27.4,29.90,North,0,0.0,0.0,83,0.00,OVC,,0.00,WeatherDisplay:10.37,2013-02-16 06:07:00,
2013-02-16 01:12:00,32.2,27.6,29.90,North,0,0.0,0.0,83,0.00,OVC,,0.00,WeatherDisplay:10.37,2013-02-16 06:12:00,
2013-02-16 01:17:00,32.2,27.6,29.90,North,0,0.0,0.0,83,0.00,OVC,,0.00,WeatherDisplay:10.37,2013-02-16 06:17:00,
2013-02-16 01:22:00,32.2,27.6,29.90,North,0,0.0,0.0,83,0.00,OVC,,0.00,WeatherDisplay:10.37,2013-02-16 06:22:00,
2013-02-16 01:27:00,32.2,27.6,29.90,North,0,0.0,0.0,83,0.00,OVC,,0.00,WeatherDisplay:10.37,2013-02-16 06:27:00,
2013-02-16 01:32:00,32.4,27.8,29.90,North,0,0.0,0.0,83,0.00,OVC,,0.00,WeatherDisplay:10.37,2013-02-16 06:32:00,
2013-02-16 01:37:00,32.4,27.8,29.90,North,0,0.0,0.0,83,0.00,OVC,,0.00,WeatherDisplay:10.37,2013-02-16 06:37:00,
2013-02-16 01:42:00,32.5,28.0,29.90,North,0,0.0,0.0,83,0.00,OVC,,0.00,WeatherDisplay:10.37,2013-02-16 06:42:00,
2013-02-16 01:47:00,32.5,28.0,29.90,North,0,0.0,0.0,83,0.00,OVC,,0.00,WeatherDisplay:10.37,2013-02-16 06:47:00,
2013-02-16 01:52:00,32.4,27.8,29.90,North,0,0.0,0.0,83,0.00,OVC,,0.00,WeatherDisplay:10.37,2013-02-16 06:52:00,
2013-02-16 01:57:00,32.4,27.8,29.90,North,0,0.0,0.0,83,0.00,OVC,,0.00,WeatherDisplay:10.37,2013-02-16 06:57:00,
2013-02-16 02:02:00,32.5,28.0,29.91,North,0,0.0,0.0,83,0.00,-SN,,0.00,WeatherDisplay:10.37,2013-02-16 07:02:00,
2013-02-16 02:07:00,32.5,28.0,29.91,North,0,0.0,0.0,83,0.00,-SN,,0.00,WeatherDisplay:10.37,2013-02-16 07:07:00,
2013-02-16 02:12:00,32.5,28.0,29.91,ENE,68,0.0,0.0,83,0.00,-SN,,0.00,WeatherDisplay:10.37,2013-02-16 07:12:00,
2013-02-16 02:17:00,32.5,28.0,29.91,East,90,0.0,0.0,83,0.00,-SN,,0.00,WeatherDisplay:10.37,2013-02-16 07:17:00,
2013-02-16 02:22:00,32.4,27.8,29.88,SSW,202,0.1,2.3,83,0.00,-SN,,0.00,WeatherDisplay:10.37,2013-02-16 07:22:00,
2013-02-16 02:27:00,32.5,28.2,29.88,WSW,248,0.3,1.1,84,0.00,-SN,,0.00,WeatherDisplay:10.37,2013-02-16 07:27:00,
2013-02-16 02:32:00,32.7,28.4,29.88,SW,225,0.9,1.1,84,0.00,-SN,,0.00,WeatherDisplay:10.37,2013-02-16 07:32:00,
2013-02-16 02:37:00,32.7,28.4,29.88,NNW,338,0.9,2.3,84,0.00,-SN,,0.00,WeatherDisplay:10.37,2013-02-16 07:37:00,
2013-02-16 02:42:00,32.9,28.0,29.90,SSW,202,1.1,2.3,82,0.00,-SN,,0.00,WeatherDisplay:10.37,2013-02-16 07:42:00,
2013-02-16 02:47:00,33.1,28.2,29.90,North,0,1.7,2.3,82,0.00,-SN,,0.00,WeatherDisplay:10.37,2013-02-16 07:47:00,
2013-02-16 02:52:00,33.3,28.1,29.90,West,270,2.5,5.8,81,0.00,-SN,,0.00,WeatherDisplay:10.37,2013-02-16 07:52:00,
2013-02-16 02:57:00,33.3,28.1,29.90,SW,225,2.3,2.3,81,0.00,-SN,,0.00,WeatherDisplay:10.37,2013-02-16 07:57:00,
2013-02-16 03:02:00,32.9,27.7,29.91,NNW,338,1.7,1.7,81,0.00,-SN,,0.00,WeatherDisplay:10.37,2013-02-16 08:02:00,
2013-02-16 03:07:00,32.9,27.7,29.91,NNW,338,1.7,1.7,81,0.00,-SN,,0.00,WeatherDisplay:10.37,2013-02-16 08:07:00,
2013-02-16 03:12:00,32.4,27.5,29.91,WNW,292,1.6,2.3,82,0.00,-SN,,0.00,WeatherDisplay:10.37,2013-02-16 08:12:00,
2013-02-16 03:17:00,32.5,27.7,29.91,West,270,1.5,1.5,82,0.00,-SN,,0.00,WeatherDisplay:10.37,2013-02-16 08:17:00,
2013-02-16 03:22:00,32.2,27.3,29.89,West,270,0.7,2.3,82,0.00,-SN,,0.00,WeatherDisplay:10.37,2013-02-16 08:22:00,
2013-02-16 03:27:00,32.2,27.6,29.89,SW,225,0.6,0.0,83,0.00,-SN,,0.00,WeatherDisplay:10.37,2013-02-16 08:27:00,
2013-02-16 03:32:00,32.0,27.4,29.89,NNW,338,1.0,0.0,83,0.00,-SN,,0.00,WeatherDisplay:10.37,2013-02-16 08:32:00,
2013-02-16 03:37:00,32.0,27.4,29.89,NNE,22,1.0,1.1,83,0.00,-SN,,0.00,WeatherDisplay:10.37,2013-02-16 08:37:00,
2013-02-16 03:42:00,31.8,27.2,29.90,NW,315,0.7,1.1,83,0.00,-SN,,0.00,WeatherDisplay:10.37,2013-02-16 08:42:00,
2013-02-16 03:47:00,31.8,27.2,29.90,WNW,292,0.3,2.3,83,0.00,-SN,,0.00,WeatherDisplay:10.37,2013-02-16 08:47:00,
2013-02-16 03:52:00,31.8,27.2,29.90,SW,225,0.6,1.1,83,0.00,-SN,,0.00,WeatherDisplay:10.37,2013-02-16 08:52:00,
2013-02-16 03:57:00,31.8,27.2,29.90,SW,225,0.5,1.1,83,0.00,-SN,,0.00,WeatherDisplay:10.37,2013-02-16 08:57:00,
2013-02-16 04:02:00,31.8,27.5,29.89,SW,225,0.3,0.0,84,0.00,-SN,,0.00,WeatherDisplay:10.37,2013-02-16 09:02:00,
2013-02-16 04:07:00,31.8,27.5,29.89,NW,315,0.5,0.0,84,0.00,-SN,,0.00,WeatherDisplay:10.37,2013-02-16 09:07:00,
2013-02-16 04:12:00,31.6,27.4,29.89,SW,225,0.3,0.0,84,0.00,-SN,,0.00,WeatherDisplay:10.37,2013-02-16 09:12:00,
2013-02-16 04:17:00,31.6,27.4,29.89,NE,45,0.1,0.0,84,0.00,-SN,,0.00,WeatherDisplay:10.37,2013-02-16 09:17:00,
2013-02-16 04:22:00,31.8,27.5,29.90,NE,45,0.0,1.1,84,0.00,-SN,,0.00,WeatherDisplay:10.37,2013-02-16 09:22:00,
2013-02-16 04:27:00,31.8,27.5,29.90,NNE,22,0.2,0.0,84,0.00,-SN,,0.00,WeatherDisplay:10.37,2013-02-16 09:27:00,
2013-02-16 04:32:00,31.5,27.2,29.90,WSW,248,0.3,2.3,84,0.00,-SN,,0.00,WeatherDisplay:10.37,2013-02-16 09:32:00,
2013-02-16 04:37:00,31.5,27.2,29.90,WSW,248,0.3,1.1,84,0.00,-SN,,0.00,WeatherDisplay:10.37,2013-02-16 09:37:00,
2013-02-16 04:42:00,31.5,27.2,29.89,West,270,0.3,1.1,84,0.00,-SN,,0.00,WeatherDisplay:10.37,2013-02-16 09:42:00,
2013-02-16 04:47:00,31.5,27.2,29.89,NW,315,0.5,0.0,84,0.00,-SN,,0.00,WeatherDisplay:10.37,2013-02-16 09:47:00,
2013-02-16 04:52:00,31.5,27.2,29.89,WNW,292,0.3,1.1,84,0.00,-SN,,0.00,WeatherDisplay:10.37,2013-02-16 09:52:00,
2013-02-16 04:57:00,31.5,27.2,29.89,NE,45,0.2,2.3,84,0.00,-SN,,0.00,WeatherDisplay:10.37,2013-02-16 09:57:00,
2013-02-16 05:02:00,31.3,27.0,29.90,SW,225,0.3,1.1,84,0.00,-SN,,0.00,WeatherDisplay:10.37,2013-02-16 10:02:00,
2013-02-16 05:07:00,31.3,27.0,29.90,North,0,0.3,1.1,84,0.00,-SN,,0.00,WeatherDisplay:10.37,2013-02-16 10:07:00,
2013-02-16 05:12:00,31.3,27.0,29.90,South,180,0.3,0.0,84,0.00,-SN,,0.00,WeatherDisplay:10.37,2013-02-16 10:12:00,
2013-02-16 05:17:00,31.3,27.0,29.90,NW,315,0.3,0.0,84,0.00,-SN,,0.00,WeatherDisplay:10.37,2013-02-16 10:17:00,
2013-02-16 05:22:00,31.5,27.2,29.90,NNW,338,0.2,0.0,84,0.00,-SN,,0.00,WeatherDisplay:10.37,2013-02-16 10:22:00,
2013-02-16 05:27:00,31.5,27.2,29.90,WSW,248,0.0,0.0,84,0.00,-SN,,0.00,WeatherDisplay:10.37,2013-02-16 10:27:00,
2013-02-16 05:32:00,31.5,27.2,29.90,NE,45,0.1,0.0,84,0.00,-SN,,0.00,WeatherDisplay:10.37,2013-02-16 10:32:00,
2013-02-16 05:37:00,31.1,26.8,29.90,SSE,158,0.1,0.0,84,0.00,-SN,,0.00,WeatherDisplay:10.37,2013-02-16 10:37:00,
2013-02-16 05:42:00,31.1,26.8,29.89,WSW,248,0.2,0.0,84,0.00,-SN,,0.00,WeatherDisplay:10.37,2013-02-16 10:42:00,
2013-02-16 05:47:00,31.1,26.8,29.89,SW,225,0.2,0.0,84,0.00,-SN,,0.00,WeatherDisplay:10.37,2013-02-16 10:47:00,
2013-02-16 05:52:00,31.1,26.8,29.89,NW,315,0.1,0.0,84,0.00,-SN,,0.00,WeatherDisplay:10.37,2013-02-16 10:52:00,
2013-02-16 05:57:00,31.1,26.8,29.89,SSW,202,0.0,0.0,84,0.00,-SN,,0.00,WeatherDisplay:10.37,2013-02-16 10:57:00,
2013-02-16 06:02:00,31.1,26.8,29.89,WSW,248,0.0,0.0,84,0.00,-SN,,0.00,WeatherDisplay:10.37,2013-02-16 11:02:00,
2013-02-16 06:07:00,31.1,26.8,29.89,WSW,248,0.0,0.0,84,0.00,-SN,,0.00,WeatherDisplay:10.37,2013-02-16 11:07:00,
2013-02-16 06:12:00,31.1,26.8,29.89,South,180,0.2,0.0,84,0.00,-SN,,0.00,WeatherDisplay:10.37,2013-02-16 11:12:00,
2013-02-16 06:17:00,31.1,26.8,29.89,WNW,292,0.2,0.0,84,0.00,-SN,,0.00,WeatherDisplay:10.37,2013-02-16 11:17:00,
2013-02-16 06:22:00,31.1,26.8,29.88,NNE,22,0.1,0.0,84,0.00,-SN,,0.00,WeatherDisplay:10.37,2013-02-16 11:22:00,
2013-02-16 06:27:00,31.1,26.8,29.88,NE,45,0.1,0.0,84,0.00,-SN,,0.00,WeatherDisplay:10.37,2013-02-16 11:27:00,
2013-02-16 06:32:00,31.1,26.8,29.88,WNW,292,0.0,0.0,84,0.00,-SN,,0.00,WeatherDisplay:10.37,2013-02-16 11:32:00,
2013-02-16 06:37:00,31.1,26.8,29.88,NE,45,0.0,0.0,84,0.00,-SN,,0.00,WeatherDisplay:10.37,2013-02-16 11:37:00,
2013-02-16 06:42:00,31.1,26.8,29.88,WNW,292,0.1,1.1,84,0.00,-SN,,0.00,WeatherDisplay:10.37,2013-02-16 11:42:00,
2013-02-16 06:47:00,31.1,26.8,29.88,SW,225,0.1,0.0,84,0.00,-SN,,0.00,WeatherDisplay:10.37,2013-02-16 11:47:00,
2013-02-16 06:53:00,31.1,26.8,29.88,WSW,248,0.0,0.0,84,0.00,-SN,,0.00,WeatherDisplay:10.37,2013-02-16 11:53:00,
2013-02-16 06:58:00,30.7,26.5,29.89,NW,315,0.0,0.0,84,0.00,-SN,,0.00,WeatherDisplay:10.37,2013-02-16 11:58:00,
2013-02-16 07:03:00,30.7,26.5,29.89,NNW,338,0.0,0.0,84,0.00,-SN,,0.00,WeatherDisplay:10.37,2013-02-16 12:03:00,
2013-02-16 07:08:00,30.7,26.5,29.89,SW,225,0.0,0.0,84,0.00,-SN,,0.00,WeatherDisplay:10.37,2013-02-16 12:08:00,
2013-02-16 07:13:00,30.7,26.5,29.89,NNE,22,0.0,0.0,84,0.00,-SN,,0.00,WeatherDisplay:10.37,2013-02-16 12:13:00,
2013-02-16 07:19:00,30.7,26.5,29.89,NW,315,0.1,0.0,84,0.00,-SN,,0.00,WeatherDisplay:10.37,2013-02-16 12:19:00,
2013-02-16 07:25:00,31.1,26.8,29.89,NW,315,0.1,1.1,84,0.00,-SN,,0.00,WeatherDisplay:10.37,2013-02-16 12:25:00,
2013-02-16 07:31:00,30.7,26.5,29.89,NNE,22,0.0,0.0,84,0.00,-SN,,0.00,WeatherDisplay:10.37,2013-02-16 12:31:00,
2013-02-16 07:36:00,31.1,26.8,29.89,NW,315,0.0,0.0,84,0.00,-SN,,0.00,WeatherDisplay:10.37,2013-02-16 12:36:00,
2013-02-16 07:41:00,31.1,26.8,29.90,NNE,22,0.0,0.0,84,0.00,-SN,,0.00,WeatherDisplay:10.37,2013-02-16 12:41:00,
2013-02-16 07:46:00,31.1,26.8,29.90,NW,315,0.0,0.0,84,0.00,-SN,,0.00,WeatherDisplay:10.37,2013-02-16 12:46:00,
2013-02-16 07:51:00,31.1,26.8,29.90,SW,225,0.0,0.0,84,0.00,-SN,,0.00,WeatherDisplay:10.37,2013-02-16 12:51:00,
2013-02-16 07:56:00,31.5,27.2,29.90,SSW,202,0.0,0.0,84,0.00,-SN,,0.00,WeatherDisplay:10.37,2013-02-16 12:56:00,
2013-02-16 08:01:00,31.8,27.5,29.93,WNW,292,0.0,0.0,84,0.00,OVC,,0.00,WeatherDisplay:10.37,2013-02-16 13:01:00,
2013-02-16 08:06:00,31.8,27.5,29.93,NNW,338,0.0,0.0,84,0.00,OVC,,0.00,WeatherDisplay:10.37,2013-02-16 13:06:00,
2013-02-16 08:11:00,31.8,27.5,29.93,WSW,248,0.0,0.0,84,0.00,OVC,,0.00,WeatherDisplay:10.37,2013-02-16 13:11:00,
2013-02-16 08:16:00,32.0,27.4,29.93,WSW,248,0.0,0.0,83,0.00,OVC,,0.00,WeatherDisplay:10.37,2013-02-16 13:16:00,
2013-02-16 08:21:00,32.2,27.6,29.97,NNW,338,0.0,0.0,83,0.00,OVC,,0.00,WeatherDisplay:10.37,2013-02-16 13:21:00,
2013-02-16 08:26:00,32.5,28.0,29.97,WNW,292,0.1,1.1,83,0.00,OVC,,0.00,WeatherDisplay:10.37,2013-02-16 13:26:00,
2013-02-16 08:31:00,32.5,28.0,29.97,South,180,0.2,1.3,83,0.00,OVC,,0.00,WeatherDisplay:10.37,2013-02-16 13:31:00,
2013-02-16 08:36:00,32.7,28.1,29.97,NNW,338,0.3,1.1,83,0.00,OVC,,0.00,WeatherDisplay:10.37,2013-02-16 13:36:00,
2013-02-16 08:42:00,32.9,28.3,29.98,WSW,248,0.2,0.0,83,0.00,OVC,,0.00,WeatherDisplay:10.37,2013-02-16 13:42:00,
2013-02-16 08:47:00,33.3,28.4,29.98,WSW,248,0.2,0.0,82,0.00,OVC,,0.00,WeatherDisplay:10.37,2013-02-16 13:47:00,
2013-02-16 08:52:00,33.1,28.2,29.98,NE,45,0.0,0.0,82,0.00,OVC,,0.00,WeatherDisplay:10.37,2013-02-16 13:52:00,
2013-02-16 08:57:00,33.3,28.4,29.98,ENE,68,0.0,0.0,82,0.00,OVC,,0.00,WeatherDisplay:10.37,2013-02-16 13:57:00,
2013-02-16 09:02:00,33.4,28.5,29.97,SSE,158,0.0,0.0,82,0.00,-SN,,0.00,WeatherDisplay:10.37,2013-02-16 14:02:00,
2013-02-16 09:07:00,33.4,28.5,29.97,WSW,248,0.0,0.0,82,0.00,-SN,,0.00,WeatherDisplay:10.37,2013-02-16 14:07:00,
2013-02-16 09:12:00,33.4,28.5,29.97,North,0,0.1,0.0,82,0.00,-SN,,0.00,WeatherDisplay:10.37,2013-02-16 14:12:00,
2013-02-16 09:17:00,33.6,28.7,29.97,WNW,292,0.1,0.0,82,0.00,-SN,,0.00,WeatherDisplay:10.37,2013-02-16 14:17:00,
2013-02-16 09:22:00,34.0,28.8,29.97,SW,225,0.2,1.1,81,0.00,-SN,,0.00,WeatherDisplay:10.37,2013-02-16 14:22:00,
2013-02-16 09:27:00,34.2,29.2,29.97,NNW,338,0.1,0.0,82,0.00,-SN,,0.00,WeatherDisplay:10.37,2013-02-16 14:27:00,
2013-02-16 09:32:00,34.3,29.1,29.97,NNE,22,0.0,0.0,81,0.00,-SN,,0.00,WeatherDisplay:10.37,2013-02-16 14:32:00,
2013-02-16 09:37:00,34.7,29.5,29.97,NNE,22,0.2,0.0,81,0.00,-SN,,0.00,WeatherDisplay:10.37,2013-02-16 14:37:00,
2013-02-16 09:42:00,34.9,29.6,29.96,NE,45,0.3,1.1,81,0.00,-SN,,0.00,WeatherDisplay:10.37,2013-02-16 14:42:00,
2013-02-16 09:47:00,35.4,30.2,29.96,NE,45,0.2,0.0,81,0.00,-SN,,0.00,WeatherDisplay:10.37,2013-02-16 14:47:00,
2013-02-16 09:52:00,35.8,30.5,29.96,NE,45,0.2,0.0,81,0.00,-SN,,0.00,WeatherDisplay:10.37,2013-02-16 14:52:00,
2013-02-16 09:57:00,35.6,30.3,29.96,ENE,68,0.2,1.1,81,0.00,-SN,,0.00,WeatherDisplay:10.37,2013-02-16 14:57:00,
2013-02-16 10:02:00,36.1,30.6,29.96,SE,135,0.3,0.0,80,0.00,-SN,,0.00,WeatherDisplay:10.37,2013-02-16 15:02:00,
2013-02-16 10:07:00,36.0,30.4,29.96,NNW,338,0.7,1.1,80,0.00,-SN,,0.00,WeatherDisplay:10.37,2013-02-16 15:07:00,
2013-02-16 10:12:00,36.1,30.3,29.96,SSE,158,0.8,2.3,79,0.00,-SN,,0.00,WeatherDisplay:10.37,2013-02-16 15:12:00,
2013-02-16 10:17:00,36.1,29.9,29.96,NNW,338,0.9,0.0,78,0.00,-SN,,0.00,WeatherDisplay:10.37,2013-02-16 15:17:00,
2013-02-16 10:22:00,36.3,30.1,29.96,NE,45,0.9,1.1,78,0.00,-SN,,0.00,WeatherDisplay:10.37,2013-02-16 15:22:00,
2013-02-16 10:27:00,36.5,29.7,29.96,NE,45,0.9,1.1,76,0.00,-SN,,0.00,WeatherDisplay:10.37,2013-02-16 15:27:00,
2013-02-16 10:32:00,36.5,29.7,29.96,North,0,0.9,1.1,76,0.00,-SN,,0.00,WeatherDisplay:10.37,2013-02-16 15:32:00,
2013-02-16 10:37:00,36.3,29.5,29.96,WSW,248,0.9,3.5,76,0.00,-SN,,0.00,WeatherDisplay:10.37,2013-02-16 15:37:00,
2013-02-16 10:42:00,36.1,29.3,29.97,NW,315,1.0,1.1,76,0.00,-SN,,0.00,WeatherDisplay:10.37,2013-02-16 15:42:00,
2013-02-16 10:47:00,36.3,29.5,29.97,SW,225,1.3,2.3,76,0.00,-SN,,0.00,WeatherDisplay:10.37,2013-02-16 15:47:00,
2013-02-16 10:52:00,37.0,30.2,29.97,NNE,22,0.6,0.0,76,0.00,-SN,,0.00,WeatherDisplay:10.37,2013-02-16 15:52:00,
2013-02-16 10:57:00,37.4,30.2,29.97,SW,225,0.7,1.1,75,0.00,-SN,,0.00,WeatherDisplay:10.37,2013-02-16 15:57:00,
2013-02-16 11:02:00,37.6,30.4,29.95,SSE,158,0.6,0.0,75,0.00,-SN,,0.00,WeatherDisplay:10.37,2013-02-16 16:02:00,
2013-02-16 11:07:00,37.2,29.7,29.95,North,0,0.6,1.1,74,0.00,-SN,,0.00,WeatherDisplay:10.37,2013-02-16 16:07:00,
2013-02-16 11:12:00,37.2,29.7,29.95,NW,315,0.9,1.1,74,0.00,-SN,,0.00,WeatherDisplay:10.37,2013-02-16 16:12:00,
2013-02-16 11:17:00,37.6,30.4,29.95,SSE,158,1.1,0.0,75,0.00,-SN,,0.00,WeatherDisplay:10.37,2013-02-16 16:17:00,
2013-02-16 11:22:00,37.8,30.2,29.95,SW,225,1.1,2.3,74,0.00,-SN,,0.00,WeatherDisplay:10.37,2013-02-16 16:22:00,
2013-02-16 11:27:00,37.8,30.5,29.95,WSW,248,1.0,2.3,75,0.00,-SN,,0.00,WeatherDisplay:10.37,2013-02-16 16:27:00,
2013-02-16 11:32:00,37.8,30.2,29.95,SSE,158,1.3,3.5,74,0.00,-SN,,0.00,WeatherDisplay:10.37,2013-02-16 16:32:00,
2013-02-16 11:37:00,37.8,30.2,29.95,WNW,292,1.4,3.5,74,0.00,-SN,,0.00,WeatherDisplay:10.37,2013-02-16 16:37:00,
2013-02-16 11:42:00,37.9,30.4,29.93,ENE,68,1.1,3.5,74,0.00,-SN,,0.00,WeatherDisplay:10.37,2013-02-16 16:42:00,
2013-02-16 11:47:00,38.5,30.9,29.93,NE,45,1.5,2.3,74,0.00,-SN,,0.00,WeatherDisplay:10.37,2013-02-16 16:47:00,
2013-02-16 11:52:00,39.0,31.4,29.93,NE,45,1.4,0.0,74,0.00,-SN,,0.00,WeatherDisplay:10.37,2013-02-16 16:52:00,
2013-02-16 11:57:00,39.0,30.8,29.93,NE,45,1.4,0.0,72,0.00,-SN,,0.00,WeatherDisplay:10.37,2013-02-16 16:57:00,
2013-02-16 12:02:00,37.9,29.4,29.93,WNW,292,1.3,3.5,71,0.00,-SN,,0.00,WeatherDisplay:10.37,2013-02-16 17:02:00,
2013-02-16 12:07:00,37.9,29.4,29.93,WNW,292,1.3,3.5,71,0.00,-SN,,0.00,WeatherDisplay:10.37,2013-02-16 17:07:00,
2013-02-16 12:12:00,37.6,29.7,29.93,WSW,248,1.4,3.5,73,0.01,-SN,,0.01,WeatherDisplay:10.37,2013-02-16 17:12:00,
2013-02-16 12:17:00,37.6,29.4,29.93,SW,225,1.1,2.3,72,0.01,-SN,,0.01,WeatherDisplay:10.37,2013-02-16 17:17:00,
2013-02-16 12:22:00,37.2,29.4,29.92,SSW,202,1.1,0.0,73,0.01,-SN,,0.01,WeatherDisplay:10.37,2013-02-16 17:22:00,
2013-02-16 12:27:00,37.2,29.4,29.92,SSW,202,1.0,1.1,73,0.01,-SN,,0.01,WeatherDisplay:10.37,2013-02-16 17:27:00,
2013-02-16 12:32:00,37.0,29.2,29.92,NNW,338,0.7,1.1,73,0.01,-SN,,0.01,WeatherDisplay:10.37,2013-02-16 17:32:00,
2013-02-16 12:37:00,36.9,28.3,29.92,NW,315,1.0,1.1,71,0.01,-SN,,0.01,WeatherDisplay:10.37,2013-02-16 17:37:00,
2013-02-16 12:42:00,37.6,29.7,29.92,NE,45,1.7,3.5,73,0.01,-SN,,0.01,WeatherDisplay:10.37,2013-02-16 17:42:00,
2013-02-16 12:47:00,37.6,29.0,29.92,North,0,1.8,1.8,71,0.01,-SN,,0.01,WeatherDisplay:10.37,2013-02-16 17:47:00,
2013-02-16 12:52:00,37.6,29.4,29.92,NNW,338,1.1,1.1,72,0.01,-SN,,0.01,WeatherDisplay:10.37,2013-02-16 17:52:00,
2013-02-16 12:57:00,37.8,29.9,29.92,NE,45,0.6,2.3,73,0.01,-SN,,0.01,WeatherDisplay:10.37,2013-02-16 17:57:00,
2013-02-16 13:02:00,38.3,30.4,29.91,North,0,0.7,1.1,73,0.03,-SN,,0.03,WeatherDisplay:10.37,2013-02-16 18:02:00,
2013-02-16 13:07:00,38.3,30.1,29.91,ENE,68,0.8,0.0,72,0.03,-SN,,0.03,WeatherDisplay:10.37,2013-02-16 18:07:00,
2013-02-16 13:12:00,38.7,30.1,29.91,NE,45,0.7,1.1,71,0.03,-SN,,0.03,WeatherDisplay:10.37,2013-02-16 18:12:00,
2013-02-16 13:17:00,38.3,29.7,29.91,West,270,0.6,0.0,71,0.01,-SN,,0.03,WeatherDisplay:10.37,2013-02-16 18:17:00,
2013-02-16 13:22:00,37.9,29.0,29.91,SSE,158,0.3,1.1,70,0.01,-SN,,0.03,WeatherDisplay:10.37,2013-02-16 18:22:00,
2013-02-16 13:27:00,38.3,30.1,29.91,ENE,68,0.5,2.3,72,0.01,-SN,,0.03,WeatherDisplay:10.37,2013-02-16 18:27:00,
2013-02-16 13:32:00,38.3,29.7,29.91,SSW,202,0.8,1.1,71,0.01,-SN,,0.03,WeatherDisplay:10.37,2013-02-16 18:32:00,
2013-02-16 13:37:00,38.5,30.2,29.91,South,180,0.8,0.0,72,0.01,-SN,,0.03,WeatherDisplay:10.37,2013-02-16 18:37:00,
2013-02-16 13:42:00,38.3,29.0,29.90,SSW,202,0.6,2.3,69,0.01,-SN,,0.03,WeatherDisplay:10.37,2013-02-16 18:42:00,
2013-02-16 13:47:00,38.3,29.4,29.90,WNW,292,0.6,0.0,70,0.01,-SN,,0.03,WeatherDisplay:10.37,2013-02-16 18:47:00,
2013-02-16 13:52:00,39.0,30.4,29.90,North,0,0.8,2.3,71,0.01,-SN,,0.03,WeatherDisplay:10.37,2013-02-16 18:52:00,
2013-02-16 13:57:00,38.5,29.2,29.90,SW,225,0.9,2.3,69,0.01,-SN,,0.03,WeatherDisplay:10.37,2013-02-16 18:57:00,
2013-02-16 14:02:00,38.7,30.1,29.89,ESE,112,1.1,3.5,71,0.01,-SN,,0.03,WeatherDisplay:10.37,2013-02-16 19:02:00,
2013-02-16 14:07:00,38.5,29.2,29.89,SW,225,1.5,1.5,69,0.00,-SN,,0.03,WeatherDisplay:10.37,2013-02-16 19:07:00,
2013-02-16 14:12:00,38.5,29.5,29.89,SSW,202,1.1,0.0,70,0.00,-SN,,0.03,WeatherDisplay:10.37,2013-02-16 19:12:00,
2013-02-16 14:17:00,38.5,29.2,29.89,SW,225,0.5,1.1,69,0.00,-SN,,0.03,WeatherDisplay:10.37,2013-02-16 19:17:00,
2013-02-16 14:22:00,37.9,28.7,29.89,NNE,22,0.7,1.1,69,0.00,-SN,,0.03,WeatherDisplay:10.37,2013-02-16 19:22:00,
2013-02-16 14:27:00,38.1,28.5,29.89,WSW,248,0.9,2.3,68,0.00,-SN,,0.03,WeatherDisplay:10.37,2013-02-16 19:27:00,
2013-02-16 14:32:00,38.5,29.2,29.89,NNE,22,1.0,2.3,69,0.00,-SN,,0.03,WeatherDisplay:10.37,2013-02-16 19:32:00,
2013-02-16 14:37:00,38.3,28.7,29.89,NW,315,1.5,2.3,68,0.00,-SN,,0.03,WeatherDisplay:10.37,2013-02-16 19:37:00,
2013-02-16 14:42:00,38.5,28.8,29.88,SW,225,1.0,2.3,68,0.00,-SN,,0.03,WeatherDisplay:10.37,2013-02-16 19:42:00,
2013-02-16 14:47:00,38.1,28.1,29.88,NW,315,1.0,1.1,67,0.00,-SN,,0.03,WeatherDisplay:10.37,2013-02-16 19:47:00,
2013-02-16 14:52:00,38.1,27.8,29.88,WSW,248,1.5,2.3,66,0.00,-SN,,0.03,WeatherDisplay:10.37,2013-02-16 19:52:00,
2013-02-16 14:57:00,38.7,29.0,29.88,NNE,22,1.3,3.5,68,0.00,-SN,,0.03,WeatherDisplay:10.37,2013-02-16 19:57:00,
2013-02-16 15:02:00,38.5,29.2,29.88,ENE,68,0.9,1.6,69,0.00,-SN,,0.03,WeatherDisplay:10.37,2013-02-16 20:02:00,
2013-02-16 15:07:00,38.3,29.0,29.88,NE,45,0.9,2.3,69,0.00,-SN,,0.03,WeatherDisplay:10.37,2013-02-16 20:07:00,
2013-02-16 15:12:00,38.7,29.4,29.88,WNW,292,1.1,2.3,69,0.00,-SN,,0.03,WeatherDisplay:10.37,2013-02-16 20:12:00,
2013-02-16 15:17:00,38.5,28.8,29.88,NE,45,1.1,2.3,68,0.00,-SN,,0.03,WeatherDisplay:10.37,2013-02-16 20:17:00,
2013-02-16 15:22:00,37.9,27.6,29.88,NNE,22,1.1,3.5,66,0.00,-SN,,0.03,WeatherDisplay:10.37,2013-02-16 20:22:00,
2013-02-16 15:27:00,37.8,27.8,29.88,NE,45,1.3,0.0,67,0.00,-SN,,0.03,WeatherDisplay:10.37,2013-02-16 20:27:00,
2013-02-16 15:32:00,37.9,28.0,29.88,SSE,158,0.5,2.3,67,0.00,-SN,,0.03,WeatherDisplay:10.37,2013-02-16 20:32:00,
2013-02-16 15:37:00,37.8,27.4,29.88,NW,315,0.8,1.1,66,0.00,-SN,,0.03,WeatherDisplay:10.37,2013-02-16 20:37:00,
2013-02-16 15:42:00,37.8,27.8,29.87,North,0,1.1,2.3,67,0.00,-SN,,0.03,WeatherDisplay:10.37,2013-02-16 20:42:00,
2013-02-16 15:47:00,37.6,28.0,29.87,South,180,0.9,0.0,68,0.00,-SN,,0.03,WeatherDisplay:10.37,2013-02-16 20:47:00,
2013-02-16 15:52:00,37.8,27.4,29.87,WNW,292,0.7,2.3,66,0.00,-SN,,0.03,WeatherDisplay:10.37,2013-02-16 20:52:00,
2013-02-16 15:57:00,37.6,27.2,29.87,NW,315,0.8,0.0,66,0.00,-SN,,0.03,WeatherDisplay:10.37,2013-02-16 20:57:00,
2013-02-16 16:02:00,37.4,27.1,29.86,ESE,112,0.8,1.1,66,0.00,-SN,,0.03,WeatherDisplay:10.37,2013-02-16 21:02:00,
2013-02-16 16:07:00,37.4,26.7,29.86,South,180,0.8,2.3,65,0.00,-SN,,0.03,WeatherDisplay:10.37,2013-02-16 21:07:00,
2013-02-16 16:12:00,37.0,26.0,29.86,SSW,202,1.1,2.3,64,0.00,-SN,,0.03,WeatherDisplay:10.37,2013-02-16 21:12:00,
2013-02-16 16:17:00,36.9,26.2,29.86,WSW,248,1.1,3.5,65,0.00,-SN,,0.03,WeatherDisplay:10.37,2013-02-16 21:17:00,
2013-02-16 16:22:00,36.7,26.0,29.81,SW,225,0.8,2.3,65,0.00,-SN,,0.03,WeatherDisplay:10.37,2013-02-16 21:22:00,
2013-02-16 16:27:00,36.3,25.7,29.81,ENE,68,0.8,0.0,65,0.00,-SN,,0.03,WeatherDisplay:10.37,2013-02-16 21:27:00,
2013-02-16 16:32:00,36.3,25.7,29.81,NNE,22,0.7,2.3,65,0.00,-SN,,0.03,WeatherDisplay:10.37,2013-02-16 21:32:00,
2013-02-16 16:37:00,36.0,25.3,29.81,WNW,292,0.7,0.0,65,0.00,-SN,,0.03,WeatherDisplay:10.37,2013-02-16 21:37:00,
2013-02-16 16:42:00,35.6,25.4,29.78,SW,225,0.7,2.3,66,0.00,-SN,,0.03,WeatherDisplay:10.37,2013-02-16 21:42:00,
2013-02-16 16:47:00,35.8,24.8,29.78,WNW,292,0.5,0.0,64,0.00,-SN,,0.03,WeatherDisplay:10.37,2013-02-16 21:47:00,
2013-02-16 16:52:00,35.4,25.2,29.78,NE,45,0.5,1.1,66,0.00,-SN,,0.03,WeatherDisplay:10.37,2013-02-16 21:52:00,
2013-02-16 16:57:00,35.2,25.4,29.78,SW,225,0.3,1.1,67,0.00,-SN,,0.03,WeatherDisplay:10.37,2013-02-16 21:57:00,
2013-02-16 17:02:00,35.1,24.8,29.79,ENE,68,0.9,0.0,66,0.00,OVC,,0.03,WeatherDisplay:10.37,2013-02-16 22:02:00,
2013-02-16 17:07:00,34.9,24.7,29.79,East,90,0.8,1.6,66,0.00,OVC,,0.03,WeatherDisplay:10.37,2013-02-16 22:07:00,
2013-02-16 17:12:00,34.7,24.1,29.79,WSW,248,0.2,0.0,65,0.00,OVC,,0.03,WeatherDisplay:10.37,2013-02-16 22:12:00,
2013-02-16 17:17:00,34.7,24.1,29.79,SW,225,0.1,0.0,65,0.00,OVC,,0.03,WeatherDisplay:10.37,2013-02-16 22:17:00,
2013-02-16 17:22:00,34.5,24.7,29.78,WNW,292,0.2,0.0,67,0.00,OVC,,0.03,WeatherDisplay:10.37,2013-02-16 22:22:00,
2013-02-16 17:27:00,34.3,24.2,29.78,NNE,22,0.3,0.0,66,0.00,OVC,,0.03,WeatherDisplay:10.37,2013-02-16 22:27:00,
2013-02-16 17:32:00,34.0,24.2,29.78,NNE,22,0.3,0.0,67,0.00,OVC,,0.03,WeatherDisplay:10.37,2013-02-16 22:32:00,
2013-02-16 17:37:00,34.0,24.5,29.78,WSW,248,0.1,0.0,68,0.00,OVC,,0.03,WeatherDisplay:10.37,2013-02-16 22:37:00,
2013-02-16 17:42:00,33.8,24.4,29.80,West,270,0.3,1.1,68,0.00,OVC,,0.03,WeatherDisplay:10.37,2013-02-16 22:42:00,
2013-02-16 17:48:00,33.8,24.4,29.80,SW,225,0.3,0.0,68,0.00,OVC,,0.03,WeatherDisplay:10.37,2013-02-16 22:48:00,
2013-02-16 17:53:00,33.8,24.0,29.80,WNW,292,0.2,1.6,67,0.00,OVC,,0.03,WeatherDisplay:10.37,2013-02-16 22:53:00,
2013-02-16 17:58:00,33.6,24.2,29.80,SSE,158,0.3,1.1,68,0.00,OVC,,0.03,WeatherDisplay:10.37,2013-02-16 22:58:00,
2013-02-16 18:03:00,33.6,23.8,29.80,East,90,0.3,0.0,67,0.00,OVC,,0.03,WeatherDisplay:10.37,2013-02-16 23:03:00,
2013-02-16 18:08:00,33.4,23.3,29.80,West,270,0.5,2.3,66,0.00,OVC,,0.03,WeatherDisplay:10.37,2013-02-16 23:08:00,
2013-02-16 18:13:00,33.4,24.0,29.80,SW,225,0.5,2.3,68,0.00,OVC,,0.03,WeatherDisplay:10.37,2013-02-16 23:13:00,
2013-02-16 18:18:00,33.6,23.8,29.79,NW,315,0.7,2.3,67,0.00,OVC,,0.03,WeatherDisplay:10.37,2013-02-16 23:18:00,
2013-02-16 18:23:00,33.4,23.3,29.79,WSW,248,1.1,2.3,66,0.00,OVC,,0.03,WeatherDisplay:10.37,2013-02-16 23:23:00,
2013-02-16 18:28:00,33.4,23.3,29.79,SSW,202,1.3,3.5,66,0.00,OVC,,0.03,WeatherDisplay:10.37,2013-02-16 23:28:00,
2013-02-16 18:33:00,33.3,23.1,29.79,NNW,338,1.0,2.3,66,0.00,OVC,,0.03,WeatherDisplay:10.37,2013-02-16 23:33:00,
2013-02-16 18:38:00,33.1,22.9,29.80,SSE,158,0.9,1.1,66,0.00,OVC,,0.03,WeatherDisplay:10.37,2013-02-16 23:38:00,
2013-02-16 18:43:00,33.1,23.3,29.80,WNW,292,0.6,2.3,67,0.00,OVC,,0.03,WeatherDisplay:10.37,2013-02-16 23:43:00,
2013-02-16 18:48:00,32.9,22.8,29.80,WNW,292,0.3,1.1,66,0.00,OVC,,0.03,WeatherDisplay:10.37,2013-02-16 23:48:00,
2013-02-16 18:53:00,32.7,23.0,29.80,SW,225,0.5,0.0,67,0.00,OVC,,0.03,WeatherDisplay:10.37,2013-02-16 23:53:00,
2013-02-16 18:58:00,32.7,23.0,29.79,South,180,0.5,2.3,67,0.00,OVC,,0.03,WeatherDisplay:10.37,2013-02-16 23:58:00,
2013-02-16 19:03:00,32.7,23.3,29.79,NW,315,0.5,1.1,68,0.00,OVC,,0.03,WeatherDisplay:10.37,2013-02-17 00:03:00,
2013-02-16 19:08:00,32.7,22.6,29.79,NW,315,0.8,2.3,66,0.00,OVC,,0.03,WeatherDisplay:10.37,2013-02-17 00:08:00,
2013-02-16 19:13:00,32.9,23.1,29.79,NNW,338,0.7,0.0,67,0.00,OVC,,0.03,WeatherDisplay:10.37,2013-02-17 00:13:00,
2013-02-16 19:18:00,32.5,23.1,29.79,NNW,338,0.3,0.0,68,0.00,OVC,,0.03,WeatherDisplay:10.37,2013-02-17 00:18:00,
2013-02-16 19:23:00,32.5,23.1,29.79,NNE,22,0.2,2.3,68,0.00,OVC,,0.03,WeatherDisplay:10.37,2013-02-17 00:23:00,
2013-02-16 19:28:00,32.5,23.1,29.79,NNE,22,0.9,2.3,68,0.00,OVC,,0.03,WeatherDisplay:10.37,2013-02-17 00:28:00,
2013-02-16 19:33:00,32.4,22.6,29.79,ENE,68,1.3,2.3,67,0.00,OVC,,0.03,WeatherDisplay:10.37,2013-02-17 00:33:00,
2013-02-16 19:38:00,32.5,22.4,29.78,NE,45,1.8,2.3,66,0.00,OVC,,0.03,WeatherDisplay:10.37,2013-02-17 00:38:00,
2013-02-16 19:43:00,32.5,22.1,29.78,NNE,22,1.7,0.0,65,0.00,OVC,,0.03,WeatherDisplay:10.37,2013-02-17 00:43:00,
2013-02-16 19:48:00,32.2,22.1,29.78,NNW,338,0.9,0.0,66,0.00,OVC,,0.03,WeatherDisplay:10.37,2013-02-17 00:48:00,
2013-02-16 19:53:00,32.2,22.1,29.78,NE,45,1.1,3.5,66,0.00,OVC,,0.03,WeatherDisplay:10.37,2013-02-17 00:53:00,
2013-02-16 19:58:00,32.0,21.6,29.78,NE,45,1.3,1.3,65,0.00,OVC,,0.03,WeatherDisplay:10.37,2013-02-17 00:58:00,
2013-02-16 20:03:00,31.8,21.4,29.78,North,0,1.0,2.3,65,0.00,OVC,,0.03,WeatherDisplay:10.37,2013-02-17 01:03:00,
2013-02-16 20:08:00,31.8,21.0,29.78,NE,45,1.7,4.6,64,0.00,OVC,,0.03,WeatherDisplay:10.37,2013-02-17 01:08:00,
2013-02-16 20:13:00,31.8,20.6,29.78,NNW,338,2.1,2.1,63,0.00,OVC,,0.03,WeatherDisplay:10.37,2013-02-17 01:13:00,
2013-02-16 20:18:00,31.8,20.6,29.77,NNE,22,2.1,3.5,63,0.00,OVC,,0.03,WeatherDisplay:10.37,2013-02-17 01:18:00,
2013-02-16 20:23:00,31.5,20.7,29.77,SSW,202,2.0,2.0,64,0.00,OVC,,0.03,WeatherDisplay:10.37,2013-02-17 01:23:00,
2013-02-16 20:28:00,31.3,20.5,29.77,SW,225,1.5,2.3,64,0.00,OVC,,0.03,WeatherDisplay:10.37,2013-02-17 01:28:00,
2013-02-16 20:33:00,31.3,20.1,29.77,NNE,22,1.1,2.3,63,0.00,OVC,,0.03,WeatherDisplay:10.37,2013-02-17 01:33:00,
2013-02-16 20:38:00,31.1,20.3,29.78,NNE,22,0.9,1.1,64,0.00,OVC,,0.03,WeatherDisplay:10.37,2013-02-17 01:38:00,
2013-02-16 20:43:00,31.1,20.3,29.78,NE,45,0.7,2.3,64,0.00,OVC,,0.03,WeatherDisplay:10.37,2013-02-17 01:43:00,
2013-02-16 20:48:00,31.1,20.0,29.78,North,0,1.1,4.6,63,0.00,OVC,,0.03,WeatherDisplay:10.37,2013-02-17 01:48:00,
2013-02-16 20:53:00,31.1,20.0,29.78,East,90,1.5,2.3,63,0.00,OVC,,0.03,WeatherDisplay:10.37,2013-02-17 01:53:00,
2013-02-16 20:58:00,31.1,19.6,29.77,SW,225,1.6,2.3,62,0.00,OVC,,0.03,WeatherDisplay:10.37,2013-02-17 01:58:00,
2013-02-16 21:03:00,31.1,20.0,29.77,WSW,248,1.1,1.1,63,0.00,OVC,,0.03,WeatherDisplay:10.37,2013-02-17 02:03:00,
2013-02-16 21:08:00,30.7,20.0,29.77,NW,315,0.6,2.3,64,0.00,OVC,,0.03,WeatherDisplay:10.37,2013-02-17 02:08:00,
2013-02-16 21:13:00,30.7,19.6,29.77,West,270,1.0,2.3,63,0.00,OVC,,0.03,WeatherDisplay:10.37,2013-02-17 02:13:00,
2013-02-16 21:18:00,30.6,19.5,29.76,SW,225,1.4,3.5,63,0.00,OVC,,0.03,WeatherDisplay:10.37,2013-02-17 02:18:00,
2013-02-16 21:23:00,30.6,19.5,29.76,WNW,292,1.1,2.3,63,0.00,OVC,,0.03,WeatherDisplay:10.37,2013-02-17 02:23:00,
2013-02-16 21:28:00,30.4,19.3,29.76,NNE,22,0.9,1.1,63,0.00,OVC,,0.03,WeatherDisplay:10.37,2013-02-17 02:28:00,
2013-02-16 21:33:00,30.4,19.3,29.76,WNW,292,1.0,1.1,63,0.00,OVC,,0.03,WeatherDisplay:10.37,2013-02-17 02:33:00,
2013-02-16 21:38:00,30.4,19.3,29.76,SE,135,0.6,2.3,63,0.00,OVC,,0.03,WeatherDisplay:10.37,2013-02-17 02:38:00,
2013-02-16 21:43:00,30.4,18.9,29.76,South,180,0.5,0.0,62,0.00,OVC,,0.03,WeatherDisplay:10.37,2013-02-17 02:43:00,
2013-02-16 21:48:00,30.2,18.4,29.76,SSW,202,0.7,0.0,61,0.00,OVC,,0.03,WeatherDisplay:10.37,2013-02-17 02:48:00,
2013-02-16 21:53:00,30.4,18.9,29.76,NNE,22,0.8,4.6,62,0.00,OVC,,0.03,WeatherDisplay:10.37,2013-02-17 02:53:00,
2013-02-16 21:58:00,30.0,18.6,29.75,NE,45,1.1,4.6,62,0.00,OVC,,0.03,WeatherDisplay:10.37,2013-02-17 02:58:00,
2013-02-16 22:03:00,30.0,18.9,29.75,NNE,22,1.5,3.5,63,0.00,OVC,,0.03,WeatherDisplay:10.37,2013-02-17 03:03:00,
2013-02-16 22:08:00,30.0,19.3,29.75,WSW,248,2.0,2.3,64,0.00,OVC,,0.03,WeatherDisplay:10.37,2013-02-17 03:08:00,
2013-02-16 22:13:00,29.7,19.7,29.75,NNE,22,1.7,5.8,66,0.00,OVC,,0.03,WeatherDisplay:10.37,2013-02-17 03:13:00,
2013-02-16 22:18:00,29.3,19.3,29.74,ESE,112,1.8,3.5,66,0.00,OVC,,0.03,WeatherDisplay:10.37,2013-02-17 03:18:00,
2013-02-16 22:23:00,29.3,19.7,29.74,NNW,338,2.0,3.5,67,0.00,OVC,,0.03,WeatherDisplay:10.37,2013-02-17 03:23:00,
2013-02-16 22:28:00,28.9,20.0,29.74,NNE,22,2.0,2.3,69,0.00,OVC,,0.03,WeatherDisplay:10.37,2013-02-17 03:28:00,
2013-02-16 22:33:00,28.8,20.2,29.74,NNE,22,2.3,3.5,70,0.00,OVC,,0.03,WeatherDisplay:10.37,2013-02-17 03:33:00,
2013-02-16 22:38:00,28.6,20.4,29.72,SSE,158,1.3,2.3,71,0.00,OVC,,0.03,WeatherDisplay:10.37,2013-02-17 03:38:00,
2013-02-16 22:43:00,28.4,20.5,29.72,North,0,1.1,4.6,72,0.00,OVC,,0.03,WeatherDisplay:10.37,2013-02-17 03:43:00,
2013-02-16 22:48:00,28.2,20.3,29.72,North,0,1.5,4.6,72,0.00,OVC,,0.03,WeatherDisplay:10.37,2013-02-17 03:48:00,
2013-02-16 22:53:00,28.0,20.5,29.72,WNW,292,1.6,2.3,73,0.00,OVC,,0.03,WeatherDisplay:10.37,2013-02-17 03:53:00,
2013-02-16 22:58:00,28.2,21.0,29.71,WSW,248,1.5,2.3,74,0.00,OVC,,0.03,WeatherDisplay:10.37,2013-02-17 03:58:00,
2013-02-16 23:03:00,27.9,20.6,29.71,North,0,1.1,1.1,74,0.00,OVC,,0.03,WeatherDisplay:10.37,2013-02-17 04:03:00,
2013-02-16 23:08:00,27.9,20.6,29.71,SSE,158,1.1,1.1,74,0.00,OVC,,0.03,WeatherDisplay:10.37,2013-02-17 04:08:00,
2013-02-16 23:14:00,27.7,20.2,29.71,NNE,22,0.9,2.3,73,0.00,OVC,,0.03,WeatherDisplay:10.37,2013-02-17 04:14:00,
2013-02-16 23:19:00,27.7,20.2,29.71,North,0,1.1,1.1,73,0.00,OVC,,0.03,WeatherDisplay:10.37,2013-02-17 04:19:00,
2013-02-16 23:24:00,27.7,20.2,29.71,ENE,68,1.0,2.3,73,0.00,OVC,,0.03,WeatherDisplay:10.37,2013-02-17 04:24:00,
2013-02-16 23:29:00,27.9,20.0,29.71,SSW,202,1.4,2.3,72,0.00,OVC,,0.03,WeatherDisplay:10.37,2013-02-17 04:29:00,
2013-02-16 23:34:00,27.5,19.3,29.71,NNW,338,1.7,3.5,71,0.00,OVC,,0.03,WeatherDisplay:10.37,2013-02-17 04:34:00,
2013-02-16 23:39:00,27.5,19.3,29.70,SSW,202,1.5,4.6,71,0.00,OVC,,0.03,WeatherDisplay:10.37,2013-02-17 04:39:00,
2013-02-16 23:44:00,27.5,19.0,29.70,North,0,1.4,2.3,70,0.00,OVC,,0.03,WeatherDisplay:10.37,2013-02-17 04:44:00,
2013-02-16 23:49:00,27.5,19.0,29.70,WNW,292,1.3,0.0,70,0.00,OVC,,0.03,WeatherDisplay:10.37,2013-02-17 04:49:00,
2013-02-16 23:54:00,27.5,19.0,29.70,West,270,0.6,0.0,70,0.00,OVC,,0.03,WeatherDisplay:10.37,2013-02-17 04:54:00,
2013-02-16 23:59:00,27.5,19.0,29.69,North,0,0.8,2.3,70,0.00,OVC,,0.03,WeatherDisplay:10.37,2013-02-17 04:59:00,